createdAt,value
2023-02-11T00:00:16.968Z,30.40
2023-02-11T00:02:46.128Z,31.60
2023-02-11T00:05:14.409Z,27.85
2023-02-11T00:07:40.907Z,26.50
2023-02-11T00:10:08.338Z,26.95
2023-02-11T00:12:36.100Z,27.58
2023-02-11T00:15:03.119Z,28.52
2023-02-11T00:17:29.877Z,24.38
2023-02-11T00:19:56.383Z,25.52
2023-02-11T00:22:23.009Z,25.05
2023-02-11T00:24:49.514Z,25.05
2023-02-11T00:27:16.126Z,22.52
2023-02-11T00:29:43.863Z,23.30
2023-02-11T00:32:10.830Z,23.75
2023-02-11T00:34:38.384Z,26.75
2023-02-11T00:37:05.705Z,22.55
2023-02-11T00:39:32.517Z,23.48
2023-02-11T00:41:59.500Z,23.63
2023-02-11T00:44:26.855Z,23.88
2023-02-11T00:46:53.645Z,22.45
2023-02-11T00:49:20.131Z,20.45
2023-02-11T00:51:48.359Z,22.85
2023-02-11T00:54:15.037Z,21.60
2023-02-11T00:56:41.539Z,23.23
2023-02-11T00:59:08.152Z,22.35
2023-02-11T01:01:35.696Z,21.48
2023-02-11T01:04:02.322Z,21.58
2023-02-11T01:06:29.013Z,21.23
2023-02-11T01:08:55.526Z,21.75
2023-02-11T01:11:22.308Z,21.08
2023-02-11T01:13:50.252Z,18.90
2023-02-11T01:16:17.650Z,23.83
2023-02-11T01:18:46.389Z,18.58
2023-02-11T01:21:12.884Z,22.70
2023-02-11T01:23:39.804Z,17.80
2023-02-11T01:26:06.785Z,21.73
2023-02-11T01:28:33.842Z,25.80
2023-02-11T01:31:02.082Z,19.90
2023-02-11T01:33:29.067Z,20.02
2023-02-11T01:35:55.568Z,20.02
2023-02-11T01:38:25.580Z,23.20
2023-02-11T01:40:58.082Z,21.35
2023-02-11T01:43:26.565Z,21.58
2023-02-11T01:46:00.000Z,19.58
2023-02-11T01:48:34.584Z,22.38
2023-02-11T01:51:30.784Z,20.02
2023-02-11T01:54:17.330Z,25.25
2023-02-11T01:57:08.605Z,21.33
2023-02-11T01:59:44.125Z,23.83
2023-02-11T02:02:13.650Z,22.52
2023-02-11T02:04:57.555Z,24.05
2023-02-11T02:07:34.855Z,23.17
2023-02-11T02:10:07.873Z,20.23
2023-02-11T02:12:36.576Z,21.92
2023-02-11T02:15:23.872Z,21.17
2023-02-11T02:17:59.075Z,22.00
2023-02-11T02:21:02.511Z,21.73
2023-02-11T02:23:52.404Z,21.60
2023-02-11T02:26:37.249Z,21.52
2023-02-11T02:29:31.990Z,22.35
2023-02-11T02:32:20.139Z,21.80
2023-02-11T02:37:34.030Z,20.45
2023-02-11T02:40:05.158Z,21.73
2023-02-11T02:42:32.569Z,22.80
2023-02-11T02:44:59.456Z,24.10
2023-02-11T02:47:26.096Z,27.63
2023-02-11T02:49:52.508Z,19.65
2023-02-11T02:52:35.844Z,22.05
2023-02-11T02:55:28.829Z,22.42
2023-02-11T02:57:58.260Z,22.52
2023-02-11T03:00:32.888Z,20.58
2023-02-11T03:03:28.956Z,18.48
2023-02-11T03:06:02.457Z,20.08
2023-02-11T03:08:44.222Z,19.70
2023-02-11T03:13:41.050Z,16.33
2023-02-11T03:16:18.609Z,19.75
2023-02-11T03:18:51.438Z,16.88
2023-02-11T03:21:19.939Z,20.67
2023-02-11T03:23:55.309Z,18.73
2023-02-11T03:26:35.845Z,19.58
2023-02-11T03:29:39.993Z,23.92
2023-02-11T03:32:27.967Z,21.45
2023-02-11T03:35:02.716Z,25.05
2023-02-11T03:37:35.171Z,20.27
2023-02-11T03:40:08.989Z,19.88
2023-02-11T03:42:44.306Z,19.95
2023-02-11T03:47:46.175Z,21.90
2023-02-11T03:50:16.121Z,17.08
2023-02-11T03:52:43.732Z,17.67
2023-02-11T03:55:15.289Z,20.42
2023-02-11T03:57:42.040Z,21.45
2023-02-11T04:00:09.691Z,18.58
2023-02-11T04:02:39.995Z,20.60
2023-02-11T04:05:08.520Z,22.38
2023-02-11T04:07:34.951Z,19.17
2023-02-11T04:10:01.461Z,18.92
2023-02-11T04:12:28.184Z,18.98
2023-02-11T04:14:54.704Z,18.73
2023-02-11T04:17:21.383Z,20.20
2023-02-11T04:19:47.845Z,18.30
2023-02-11T04:22:14.747Z,20.55
2023-02-11T04:24:41.566Z,20.98
2023-02-11T04:27:08.221Z,19.63
2023-02-11T04:29:35.084Z,16.10
2023-02-11T04:32:01.700Z,21.88
2023-02-11T04:34:28.447Z,19.45
2023-02-11T04:36:55.121Z,19.60
2023-02-11T04:39:21.767Z,19.55
2023-02-11T04:41:48.402Z,20.45
2023-02-11T04:44:15.042Z,17.70
2023-02-11T04:46:41.630Z,23.45
2023-02-11T04:49:08.328Z,21.23
2023-02-11T04:51:34.788Z,19.13
2023-02-11T04:54:01.183Z,23.27
2023-02-11T04:56:27.651Z,20.23
2023-02-11T04:58:54.493Z,20.55
2023-02-11T05:01:21.316Z,24.27
2023-02-11T05:03:47.949Z,20.63
2023-02-11T05:06:14.921Z,18.88
2023-02-11T05:08:41.593Z,24.80
2023-02-11T05:11:14.370Z,20.65
2023-02-11T05:13:41.014Z,21.20
2023-02-11T05:16:07.425Z,18.65
2023-02-11T05:18:33.920Z,20.80
2023-02-11T05:21:06.305Z,20.38
2023-02-11T05:23:34.339Z,22.45
2023-02-11T05:26:01.271Z,21.75
2023-02-11T05:28:28.281Z,21.67
2023-02-11T05:30:55.459Z,23.15
2023-02-11T05:33:22.170Z,22.55
2023-02-11T05:35:49.289Z,21.58
2023-02-11T05:38:16.239Z,25.27
2023-02-11T05:40:43.062Z,24.40
2023-02-11T05:43:09.696Z,23.63
2023-02-11T05:45:36.382Z,18.80
2023-02-11T05:48:03.937Z,22.00
2023-02-11T05:50:30.584Z,22.67
2023-02-11T05:52:57.465Z,26.08
2023-02-11T05:55:24.467Z,22.33
2023-02-11T05:57:50.916Z,27.20
2023-02-11T06:00:17.705Z,19.38
2023-02-11T06:02:44.484Z,24.42
2023-02-11T06:05:11.651Z,23.38
2023-02-11T06:07:38.326Z,23.48
2023-02-11T06:10:05.553Z,28.10
2023-02-11T06:12:32.266Z,25.13
2023-02-11T06:14:58.784Z,24.95
2023-02-11T06:17:25.378Z,27.63
2023-02-11T06:19:51.850Z,21.88
2023-02-11T06:22:18.348Z,25.08
2023-02-11T06:25:00.228Z,24.75
2023-02-11T06:27:27.997Z,26.73
2023-02-11T06:29:54.420Z,24.88
2023-02-11T06:32:42.223Z,25.95
2023-02-11T06:35:09.489Z,21.13
2023-02-11T06:37:38.090Z,22.65
2023-02-11T06:40:05.139Z,24.45
2023-02-11T06:42:31.917Z,26.65
2023-02-11T06:44:58.399Z,22.95
2023-02-11T06:47:25.385Z,26.00
2023-02-11T06:49:52.035Z,24.98
2023-02-11T06:52:18.719Z,24.10
2023-02-11T06:54:45.338Z,24.33
2023-02-11T06:57:11.881Z,25.73
2023-02-11T06:59:38.295Z,22.50
2023-02-11T07:02:05.053Z,28.85
2023-02-11T07:04:31.799Z,23.92
2023-02-11T07:06:58.474Z,26.25
2023-02-11T07:09:25.168Z,24.98
2023-02-11T07:11:51.878Z,24.15
2023-02-11T07:14:18.637Z,24.83
2023-02-11T07:16:45.115Z,22.02
2023-02-11T07:19:11.535Z,23.30
2023-02-11T07:21:38.009Z,28.45
2023-02-11T07:24:11.098Z,27.52
2023-02-11T07:26:38.479Z,24.77
2023-02-11T07:29:05.600Z,28.83
2023-02-11T07:31:33.182Z,24.42
2023-02-11T07:34:01.642Z,20.98
2023-02-11T07:36:32.128Z,24.48
2023-02-11T07:39:00.135Z,24.63
2023-02-11T07:41:26.974Z,32.58
2023-02-11T07:43:54.242Z,28.92
2023-02-11T07:46:26.431Z,27.05
2023-02-11T07:48:54.906Z,25.25
2023-02-11T07:51:24.817Z,26.63
2023-02-11T07:53:52.089Z,25.83
2023-02-11T07:56:20.524Z,24.42
2023-02-11T07:58:47.511Z,25.13
2023-02-11T08:01:19.034Z,24.58
2023-02-11T08:03:46.060Z,26.77
2023-02-11T08:06:15.431Z,23.30
2023-02-11T08:08:42.728Z,26.92
2023-02-11T08:11:15.587Z,29.45
2023-02-11T08:13:43.092Z,30.45
2023-02-11T08:16:17.163Z,32.38
2023-02-11T08:18:43.702Z,32.33
2023-02-11T08:21:10.748Z,26.17
2023-02-11T08:23:39.101Z,31.77
2023-02-11T08:26:20.449Z,33.17
2023-02-11T08:28:48.942Z,31.65
2023-02-11T08:31:19.202Z,37.47
2023-02-11T08:33:46.185Z,38.70
2023-02-11T08:36:18.656Z,39.03
2023-02-11T08:38:45.371Z,37.55
2023-02-11T08:41:14.826Z,35.95
2023-02-11T08:43:42.472Z,35.95
2023-02-11T08:46:12.165Z,34.47
2023-02-11T08:48:39.026Z,37.17
2023-02-11T08:51:08.123Z,35.15
2023-02-11T08:53:35.632Z,30.25
2023-02-11T08:56:02.786Z,45.75
2023-02-11T08:58:29.305Z,38.35
2023-02-11T09:00:55.832Z,38.85
2023-02-11T09:03:22.580Z,36.50
2023-02-11T09:05:50.749Z,40.88
2023-02-11T09:08:17.480Z,40.05
2023-02-11T09:10:45.475Z,36.88
2023-02-11T09:13:12.941Z,39.25
2023-02-11T09:15:39.641Z,38.55
2023-02-11T09:18:06.156Z,47.88
2023-02-11T09:20:32.784Z,43.10
2023-02-11T09:22:59.540Z,40.90
2023-02-11T09:25:26.606Z,39.22
2023-02-11T09:27:53.710Z,43.17
2023-02-11T09:30:20.172Z,38.50
2023-02-11T09:32:46.925Z,38.67
2023-02-11T09:35:13.587Z,35.35
2023-02-11T09:37:40.240Z,34.22
2023-02-11T09:40:07.347Z,24.45
2023-02-11T09:42:45.233Z,24.25
2023-02-11T09:45:24.117Z,38.15
2023-02-11T09:47:56.948Z,36.38
2023-02-11T09:50:35.479Z,42.05
2023-02-11T09:53:13.846Z,37.85
2023-02-11T09:55:44.771Z,44.30
2023-02-11T09:58:17.366Z,41.90
2023-02-11T10:00:50.391Z,38.92
2023-02-11T10:03:39.726Z,38.22
2023-02-11T10:06:25.018Z,40.33
2023-02-11T10:09:26.232Z,40.95
2023-02-11T10:14:56.432Z,35.58
2023-02-11T10:18:01.563Z,34.47
2023-02-11T10:20:33.621Z,35.63
2023-02-11T10:23:08.181Z,34.35
2023-02-11T10:25:40.020Z,39.15
2023-02-11T10:28:16.337Z,35.13
2023-02-11T10:30:59.634Z,40.83
2023-02-11T10:33:51.479Z,35.47
2023-02-11T10:36:19.236Z,36.47
2023-02-11T10:38:46.174Z,38.50
2023-02-11T10:41:27.812Z,36.33
2023-02-11T10:43:55.290Z,41.17
2023-02-11T10:46:27.192Z,41.08
2023-02-11T10:48:54.069Z,45.83
2023-02-11T10:51:28.790Z,39.25
2023-02-11T10:54:04.738Z,39.63
2023-02-11T10:56:34.888Z,35.65
2023-02-11T10:59:21.979Z,39.88
2023-02-11T11:01:56.748Z,45.60
2023-02-11T11:04:45.236Z,35.83
2023-02-11T11:07:13.677Z,42.10
2023-02-11T11:10:02.347Z,38.28
2023-02-11T11:12:35.409Z,37.55
2023-02-11T11:15:25.017Z,38.97
2023-02-11T11:18:21.252Z,44.67
2023-02-11T11:21:01.125Z,40.65
2023-02-11T11:23:30.064Z,39.47
2023-02-11T11:28:47.119Z,41.40
2023-02-11T11:31:23.027Z,37.15
2023-02-11T11:33:52.416Z,45.15
2023-02-11T11:36:25.622Z,37.75
2023-02-11T11:39:00.705Z,46.25
2023-02-11T11:41:31.066Z,41.53
2023-02-11T11:44:26.018Z,42.00
2023-02-11T11:47:16.914Z,40.78
2023-02-11T11:49:53.911Z,40.85
2023-02-11T11:53:07.508Z,41.55
2023-02-11T11:55:47.134Z,37.88
2023-02-11T11:58:20.347Z,39.92
2023-02-11T12:01:05.766Z,39.70
2023-02-11T12:03:52.873Z,42.15
2023-02-11T12:06:19.467Z,41.95
2023-02-11T12:09:04.929Z,47.33
2023-02-11T12:11:45.903Z,38.33
2023-02-11T12:14:33.117Z,43.85
2023-02-11T12:17:32.329Z,43.95
2023-02-11T12:20:19.871Z,39.47
2023-02-11T12:22:52.486Z,48.00
2023-02-11T12:25:26.949Z,40.08
2023-02-11T12:28:07.578Z,41.70
2023-02-11T12:30:43.050Z,46.20
2023-02-11T12:33:32.095Z,44.45
2023-02-11T12:36:10.355Z,39.65
2023-02-11T12:38:59.366Z,42.80
2023-02-11T12:42:22.823Z,44.78
2023-02-11T12:44:59.789Z,42.38
2023-02-11T12:47:26.350Z,46.20
2023-02-11T12:50:06.608Z,50.38
2023-02-11T12:52:48.837Z,47.95
2023-02-11T12:55:28.126Z,38.55
2023-02-11T12:57:57.764Z,38.88
2023-02-11T13:00:37.073Z,45.75
2023-02-11T13:03:12.687Z,41.53
2023-02-11T13:06:17.756Z,44.53
2023-02-11T13:08:48.297Z,42.00
2023-02-11T13:11:43.913Z,49.75
2023-02-11T13:14:26.548Z,42.97
2023-02-11T13:16:55.293Z,42.72
2023-02-11T13:19:43.349Z,44.65
2023-02-11T13:22:31.742Z,41.10
2023-02-11T13:25:15.979Z,49.00
2023-02-11T13:28:00.178Z,42.58
2023-02-11T13:30:35.294Z,46.03
2023-02-11T13:33:17.149Z,43.55
2023-02-11T13:35:49.538Z,43.92
2023-02-11T13:38:55.040Z,45.78
2023-02-11T13:41:28.683Z,45.85
2023-02-11T13:44:13.663Z,41.28
2023-02-11T13:46:54.453Z,48.83
2023-02-11T13:49:24.521Z,43.42
2023-02-11T13:51:52.969Z,47.65
2023-02-11T13:54:27.028Z,47.03
2023-02-11T13:57:22.151Z,48.05
2023-02-11T13:59:52.349Z,42.15
2023-02-11T14:03:03.030Z,47.38
2023-02-11T14:05:51.333Z,51.53
2023-02-11T14:08:42.340Z,9.77
2023-02-11T14:11:29.551Z,25.23
2023-02-11T14:14:23.614Z,47.72
2023-02-11T14:16:59.447Z,48.63
2023-02-11T14:19:49.949Z,42.28
2023-02-11T14:22:29.566Z,44.70
2023-02-11T14:24:57.797Z,44.63
2023-02-11T14:27:52.224Z,40.08
2023-02-11T14:30:30.666Z,44.78
2023-02-11T14:33:25.976Z,40.78
2023-02-11T14:36:05.661Z,43.38
2023-02-11T14:38:49.509Z,47.20
2023-02-11T14:41:24.407Z,41.92
2023-02-11T14:43:57.838Z,46.10
2023-02-11T14:46:30.089Z,47.80
2023-02-11T14:49:00.209Z,45.08
2023-02-11T14:51:32.304Z,47.42
2023-02-11T14:54:07.411Z,46.15
2023-02-11T14:56:37.016Z,39.30
2023-02-11T14:59:03.641Z,46.45
2023-02-11T15:01:33.989Z,43.10
2023-02-11T15:04:03.833Z,47.28
2023-02-11T15:06:38.048Z,44.67
2023-02-11T15:09:17.668Z,44.42
2023-02-11T15:11:47.778Z,38.58
2023-02-11T15:14:27.346Z,44.30
2023-02-11T15:16:59.820Z,44.92
2023-02-11T15:19:34.352Z,43.47
2023-02-11T15:22:05.804Z,40.30
2023-02-11T15:24:35.578Z,43.28
2023-02-11T15:27:15.666Z,40.33
2023-02-11T15:29:49.404Z,49.05
2023-02-11T15:32:23.864Z,43.53
2023-02-11T15:34:52.748Z,42.65
2023-02-11T15:39:47.649Z,45.50
2023-02-11T15:42:19.786Z,48.50
2023-02-11T15:44:52.307Z,45.20
2023-02-11T15:47:29.534Z,43.10
2023-02-11T15:49:56.259Z,44.13
2023-02-11T15:52:26.271Z,43.80
2023-02-11T15:54:55.912Z,44.60
2023-02-11T15:57:23.126Z,44.47
2023-02-11T15:59:53.229Z,45.08
2023-02-11T16:02:32.179Z,42.97
2023-02-11T16:05:02.491Z,42.28
2023-02-11T16:07:47.740Z,46.92
2023-02-11T16:10:30.659Z,41.38
2023-02-11T16:13:07.148Z,41.65
2023-02-11T16:15:34.064Z,43.13
2023-02-11T16:18:30.987Z,44.00
2023-02-11T16:21:06.927Z,43.53
2023-02-11T16:23:37.848Z,42.05
2023-02-11T16:26:13.206Z,45.20
2023-02-11T16:31:07.389Z,43.88
2023-02-11T16:33:34.266Z,46.70
2023-02-11T16:36:02.374Z,45.33
2023-02-11T16:38:30.611Z,40.92
2023-02-11T16:40:57.182Z,41.03
2023-02-11T16:43:24.096Z,42.30
2023-02-11T16:45:50.959Z,43.55
2023-02-11T16:48:20.199Z,45.30
2023-02-11T16:50:53.169Z,50.78
2023-02-11T16:53:23.494Z,37.95
2023-02-11T16:55:51.598Z,41.72
2023-02-11T16:58:19.877Z,41.63
2023-02-11T17:00:49.079Z,43.20
2023-02-11T17:03:23.295Z,44.90
2023-02-11T17:05:55.656Z,47.40
2023-02-11T17:08:22.769Z,46.38
2023-02-11T17:10:49.897Z,39.90
2023-02-11T17:13:16.663Z,44.20
2023-02-11T17:15:43.510Z,47.00
2023-02-11T17:18:14.352Z,42.03
2023-02-11T17:20:42.722Z,44.22
2023-02-11T17:23:09.740Z,49.35
2023-02-11T17:25:37.815Z,43.72
2023-02-11T17:28:05.727Z,48.20
2023-02-11T17:30:32.542Z,46.03
2023-02-11T17:33:00.648Z,49.35
2023-02-11T17:35:27.931Z,44.78
2023-02-11T17:37:54.714Z,54.05
2023-02-11T17:42:53.215Z,46.90
2023-02-11T17:45:22.166Z,45.97
2023-02-11T17:47:49.873Z,45.22
2023-02-11T17:50:17.860Z,44.83
2023-02-11T17:52:44.440Z,45.17
2023-02-11T17:55:11.451Z,41.45
2023-02-11T17:57:38.576Z,50.47
2023-02-11T18:00:08.066Z,44.75
2023-02-11T18:02:39.728Z,47.53
2023-02-11T18:05:07.871Z,49.42
2023-02-11T18:07:34.638Z,45.25
2023-02-11T18:10:02.335Z,48.28
2023-02-11T18:12:28.859Z,47.72
2023-02-11T18:14:57.975Z,50.42
2023-02-11T18:17:24.929Z,53.42
2023-02-11T18:19:58.046Z,49.95
2023-02-11T18:22:25.245Z,50.72
2023-02-11T18:24:55.125Z,52.05
2023-02-11T18:27:22.574Z,55.47
2023-02-11T18:29:49.152Z,52.10
2023-02-11T18:32:16.261Z,57.67
2023-02-11T18:34:43.092Z,53.63
2023-02-11T18:37:10.525Z,58.63
2023-02-11T18:39:37.503Z,54.33
2023-02-11T18:42:04.074Z,54.55
2023-02-11T18:44:30.704Z,55.97
2023-02-11T18:46:57.247Z,53.47
2023-02-11T18:49:23.780Z,53.75
2023-02-11T18:51:50.448Z,58.83
2023-02-11T18:54:17.013Z,58.38
2023-02-11T18:56:43.902Z,52.25
2023-02-11T18:59:10.889Z,55.15
2023-02-11T19:01:40.225Z,61.28
2023-02-11T19:04:07.122Z,56.65
2023-02-11T19:06:37.523Z,55.47
2023-02-11T19:09:11.385Z,68.07
2023-02-11T19:11:49.857Z,58.63
2023-02-11T19:14:23.059Z,58.10
2023-02-11T19:16:52.750Z,53.25
2023-02-11T19:19:20.082Z,52.15
2023-02-11T19:21:47.312Z,58.88
2023-02-11T19:24:21.741Z,52.38
2023-02-11T19:26:50.949Z,49.83
2023-02-11T19:29:19.090Z,56.92
2023-02-11T19:31:46.315Z,56.25
2023-02-11T19:34:16.645Z,62.10
2023-02-11T19:36:43.710Z,57.80
2023-02-11T19:39:12.849Z,58.63
2023-02-11T19:41:39.904Z,60.38
2023-02-11T19:44:07.711Z,17.52
2023-02-11T19:46:37.437Z,23.92
2023-02-11T19:49:05.048Z,66.45
2023-02-11T19:51:33.506Z,54.40
2023-02-11T19:54:00.613Z,55.53
2023-02-11T19:56:30.236Z,47.70
2023-02-11T19:58:57.459Z,53.70
2023-02-11T20:01:25.788Z,52.47
2023-02-11T20:03:55.079Z,52.65
2023-02-11T20:06:26.996Z,52.90
2023-02-11T20:09:01.236Z,52.22
2023-02-11T20:11:30.061Z,53.45
2023-02-11T20:16:40.793Z,54.50
2023-02-11T20:19:17.565Z,51.58
2023-02-11T20:21:47.046Z,50.92
2023-02-11T20:24:14.504Z,53.08
2023-02-11T20:26:42.603Z,48.22
2023-02-11T20:29:09.452Z,51.42
2023-02-11T20:31:36.411Z,51.92
2023-02-11T20:34:03.490Z,50.28
2023-02-11T20:36:32.634Z,48.33
2023-02-11T20:39:00.442Z,53.28
2023-02-11T20:41:30.819Z,54.50
2023-02-11T20:43:59.902Z,53.63
2023-02-11T20:46:28.829Z,54.35
2023-02-11T20:48:56.449Z,50.55
2023-02-11T20:51:29.181Z,60.42
2023-02-11T20:53:57.518Z,51.35
2023-02-11T20:56:27.561Z,54.40
2023-02-11T20:58:54.734Z,52.53
2023-02-11T21:01:33.194Z,51.67
2023-02-11T21:04:16.672Z,54.17
2023-02-11T21:06:52.277Z,51.20
2023-02-11T21:09:22.082Z,56.85
2023-02-11T21:11:51.488Z,52.97
2023-02-11T21:14:19.628Z,46.92
2023-02-11T21:16:47.477Z,54.05
2023-02-11T21:19:14.433Z,50.00
2023-02-11T21:21:41.695Z,51.30
2023-02-11T21:24:10.380Z,54.05
2023-02-11T21:26:37.759Z,52.97
2023-02-11T21:29:05.891Z,51.92
2023-02-11T21:31:34.630Z,50.70
2023-02-11T21:36:29.851Z,51.95
2023-02-11T21:38:56.870Z,55.10
2023-02-11T21:41:24.792Z,48.35
2023-02-11T21:43:52.202Z,51.25
2023-02-11T21:46:20.417Z,52.42
2023-02-11T21:48:47.777Z,48.35
2023-02-11T21:51:23.907Z,49.95
2023-02-11T21:53:58.978Z,55.53
2023-02-11T21:56:28.329Z,52.30
2023-02-11T21:58:57.324Z,51.58
2023-02-11T22:01:27.314Z,49.80
2023-02-11T22:03:53.820Z,51.50
2023-02-11T22:06:26.079Z,53.67
2023-02-11T22:08:53.761Z,53.65
2023-02-11T22:11:20.944Z,51.67
2023-02-11T22:13:47.499Z,47.03
2023-02-11T22:16:16.626Z,54.78
2023-02-11T22:18:46.560Z,50.08
2023-02-11T22:21:18.418Z,53.22
2023-02-11T22:23:45.265Z,52.70
2023-02-11T22:26:15.044Z,57.13
2023-02-11T22:28:42.699Z,48.17
2023-02-11T22:31:24.532Z,51.65
2023-02-11T22:33:52.056Z,55.33
2023-02-11T22:36:24.308Z,49.50
2023-02-11T22:38:51.606Z,51.25
2023-02-11T22:41:20.106Z,46.60
2023-02-11T22:43:47.111Z,46.63
2023-02-11T22:46:17.030Z,51.97
2023-02-11T22:48:43.807Z,50.65
2023-02-11T22:51:31.792Z,50.25
2023-02-11T22:54:01.623Z,49.35
2023-02-11T22:56:30.293Z,52.25
2023-02-11T23:01:28.777Z,51.58
2023-02-11T23:03:56.310Z,49.17
2023-02-11T23:06:22.756Z,48.70
2023-02-11T23:08:49.236Z,55.80
2023-02-11T23:11:19.412Z,50.30
2023-02-11T23:13:48.180Z,48.65
2023-02-11T23:16:20.807Z,47.22
2023-02-11T23:18:48.906Z,45.38
2023-02-11T23:21:22.346Z,55.10
2023-02-11T23:23:53.637Z,46.78
2023-02-11T23:26:20.235Z,51.45
2023-02-11T23:28:47.515Z,53.45
2023-02-11T23:31:22.367Z,51.95
2023-02-11T23:33:49.548Z,51.50
2023-02-11T23:36:17.192Z,52.65
2023-02-11T23:38:44.479Z,45.47
2023-02-11T23:41:11.743Z,45.13
2023-02-11T23:43:38.296Z,47.58
2023-02-11T23:46:05.728Z,44.47
2023-02-11T23:48:32.650Z,46.53
2023-02-11T23:50:59.295Z,55.28
2023-02-11T23:53:25.765Z,44.53
2023-02-11T23:55:52.368Z,45.95
2023-02-11T23:58:19.183Z,49.28
